sensor_id;sensor_type;location;lat;lon;timestamp;pressure;altitude;pressure_sealevel;temperature;humidity
44297;BME280;51842;47.450;8.654;2024-01-15T00:00:19;94495.25;;;-0.10;100.00
44297;BME280;51842;47.450;8.654;2024-01-15T00:02:45;94487.63;;;-0.12;100.00
44297;BME280;51842;47.450;8.654;2024-01-15T00:05:11;94484.44;;;-0.14;100.00
44297;BME280;51842;47.450;8.654;2024-01-15T00:07:36;94476.81;;;-0.15;100.00
44297;BME280;51842;47.450;8.654;2024-01-15T00:10:03;94480.78;;;-0.13;100.00
44297;BME280;51842;47.450;8.654;2024-01-15T00:12:29;94478.75;;;-0.11;100.00
44297;BME280;51842;47.450;8.654;2024-01-15T00:14:55;94463.47;;;-0.14;100.00
44297;BME280;51842;47.450;8.654;2024-01-15T00:17:21;94467.69;;;-0.13;100.00
44297;BME280;51842;47.450;8.654;2024-01-15T00:19:47;94468.50;;;-0.12;100.00
44297;BME280;51842;47.450;8.654;2024-01-15T00:22:12;94467.47;;;-0.11;100.00
44297;BME280;51842;47.450;8.654;2024-01-15T00:24:38;94458.50;;;-0.15;100.00
44297;BME280;51842;47.450;8.654;2024-01-15T00:27:04;94454.25;;;-0.16;100.00
44297;BME280;51842;47.450;8.654;2024-01-15T00:29:30;94454.84;;;-0.14;100.00
44297;BME280;51842;47.450;8.654;2024-01-15T00:31:56;94463.28;;;-0.12;100.00
44297;BME280;51842;47.450;8.654;2024-01-15T00:34:22;94467.69;;;-0.13;100.00
44297;BME280;51842;47.450;8.654;2024-01-15T00:36:48;94474.53;;;-0.12;100.00
44297;BME280;51842;47.450;8.654;2024-01-15T00:39:13;94479.19;;;-0.14;100.00
44297;BME280;51842;47.450;8.654;2024-01-15T00:41:39;94471.56;;;-0.15;100.00
44297;BME280;51842;47.450;8.654;2024-01-15T00:44:05;94470.75;;;-0.16;100.00
44297;BME280;51842;47.450;8.654;2024-01-15T00:46:31;94470.75;;;-0.16;100.00
44297;BME280;51842;47.450;8.654;2024-01-15T00:48:57;94468.59;;;-0.19;100.00
44297;BME280;51842;47.450;8.654;2024-01-15T00:51:23;94466.78;;;-0.18;100.00
44297;BME280;51842;47.450;8.654;2024-01-15T00:53:48;94471.00;;;-0.17;100.00
44297;BME280;51842;47.450;8.654;2024-01-15T00:56:14;94473.03;;;-0.19;100.00
44297;BME280;51842;47.450;8.654;2024-01-15T00:58:40;94470.06;;;-0.23;100.00
44297;BME280;51842;47.450;8.654;2024-01-15T01:01:06;94475.88;;;-0.21;100.00
44297;BME280;51842;47.450;8.654;2024-01-15T01:03:32;94463.44;;;-0.26;100.00
44297;BME280;51842;47.450;8.654;2024-01-15T01:05:57;94466.88;;;-0.25;100.00
44297;BME280;51842;47.450;8.654;2024-01-15T01:08:23;94468.69;;;-0.26;100.00
44297;BME280;51842;47.450;8.654;2024-01-15T01:10:49;94468.13;;;-0.28;100.00
44297;BME280;51842;47.450;8.654;2024-01-15T01:13:15;94467.09;;;-0.27;100.00
44297;BME280;51842;47.450;8.654;2024-01-15T01:15:44;94467.88;;;-0.26;100.00
44297;BME280;51842;47.450;8.654;2024-01-15T01:18:10;94481.44;;;-0.29;100.00
44297;BME280;51842;47.450;8.654;2024-01-15T01:20:35;94475.25;;;-0.35;100.00
44297;BME280;51842;47.450;8.654;2024-01-15T01:23:01;94478.31;;;-0.38;100.00
44297;BME280;51842;47.450;8.654;2024-01-15T01:25:27;94483.00;;;-0.40;100.00
44297;BME280;51842;47.450;8.654;2024-01-15T01:27:53;94476.84;;;-0.45;100.00
44297;BME280;51842;47.450;8.654;2024-01-15T01:30:19;94477.63;;;-0.45;100.00
44297;BME280;51842;47.450;8.654;2024-01-15T01:32:44;94477.50;;;-0.50;100.00
44297;BME280;51842;47.450;8.654;2024-01-15T01:35:10;94481.13;;;-0.51;100.00
44297;BME280;51842;47.450;8.654;2024-01-15T01:37:36;94482.50;;;-0.49;100.00
44297;BME280;51842;47.450;8.654;2024-01-15T01:40:02;94486.00;;;-0.55;100.00
44297;BME280;51842;47.450;8.654;2024-01-15T01:42:28;94491.53;;;-0.63;100.00
44297;BME280;51842;47.450;8.654;2024-01-15T01:44:54;94491.78;;;-0.64;100.00
44297;BME280;51842;47.450;8.654;2024-01-15T01:47:20;94496.84;;;-0.70;100.00
44297;BME280;51842;47.450;8.654;2024-01-15T01:49:46;94495.72;;;-0.74;100.00
44297;BME280;51842;47.450;8.654;2024-01-15T01:52:14;94501.75;;;-0.73;100.00
44297;BME280;51842;47.450;8.654;2024-01-15T01:54:40;94496.75;;;-0.75;100.00
44297;BME280;51842;47.450;8.654;2024-01-15T01:57:07;94493.78;;;-0.78;100.00
44297;BME280;51842;47.450;8.654;2024-01-15T01:59:36;94493.97;;;-0.80;100.00
44297;BME280;51842;47.450;8.654;2024-01-15T02:02:03;94505.53;;;-0.87;100.00
44297;BME280;51842;47.450;8.654;2024-01-15T02:04:31;94522.31;;;-0.95;100.00
44297;BME280;51842;47.450;8.654;2024-01-15T02:06:59;94523.97;;;-1.01;100.00
44297;BME280;51842;47.450;8.654;2024-01-15T02:09:26;94517.16;;;-1.02;100.00
44297;BME280;51842;47.450;8.654;2024-01-15T02:11:52;94516.81;;;-1.05;100.00
44297;BME280;51842;47.450;8.654;2024-01-15T02:14:18;94521.66;;;-1.09;100.00
44297;BME280;51842;47.450;8.654;2024-01-15T02:16:43;94525.06;;;-1.08;100.00
44297;BME280;51842;47.450;8.654;2024-01-15T02:19:16;94518.69;;;-1.12;100.00
44297;BME280;51842;47.450;8.654;2024-01-15T02:21:43;94520.00;;;-1.03;100.00
44297;BME280;51842;47.450;8.654;2024-01-15T02:24:09;94508.81;;;-1.10;100.00
44297;BME280;51842;47.450;8.654;2024-01-15T02:26:37;94504.09;;;-1.20;100.00
44297;BME280;51842;47.450;8.654;2024-01-15T02:29:07;94496.31;;;-1.27;100.00
44297;BME280;51842;47.450;8.654;2024-01-15T02:31:37;94497.84;;;-1.37;100.00
44297;BME280;51842;47.450;8.654;2024-01-15T02:34:04;94501.03;;;-1.35;100.00
44297;BME280;51842;47.450;8.654;2024-01-15T02:36:30;94495.44;;;-1.39;100.00
44297;BME280;51842;47.450;8.654;2024-01-15T02:38:56;94487.47;;;-1.44;100.00
44297;BME280;51842;47.450;8.654;2024-01-15T02:41:22;94491.06;;;-1.45;100.00
44297;BME280;51842;47.450;8.654;2024-01-15T02:43:47;94506.91;;;-1.40;100.00
44297;BME280;51842;47.450;8.654;2024-01-15T02:46:13;94501.53;;;-1.45;100.00
44297;BME280;51842;47.450;8.654;2024-01-15T02:48:39;94500.13;;;-1.48;100.00
44297;BME280;51842;47.450;8.654;2024-01-15T02:51:05;94515.91;;;-1.36;100.00
44297;BME280;51842;47.450;8.654;2024-01-15T02:53:31;94513.34;;;-1.43;100.00
44297;BME280;51842;47.450;8.654;2024-01-15T02:55:57;94516.34;;;-1.39;100.00
44297;BME280;51842;47.450;8.654;2024-01-15T02:58:22;94508.50;;;-1.39;100.00
44297;BME280;51842;47.450;8.654;2024-01-15T03:00:48;94515.47;;;-1.33;100.00
44297;BME280;51842;47.450;8.654;2024-01-15T03:03:14;94507.63;;;-1.33;100.00
44297;BME280;51842;47.450;8.654;2024-01-15T03:05:40;94501.19;;;-1.30;100.00
44297;BME280;51842;47.450;8.654;2024-01-15T03:08:06;94498.34;;;-1.29;100.00
44297;BME280;51842;47.450;8.654;2024-01-15T03:10:32;94495.53;;;-1.27;100.00
44297;BME280;51842;47.450;8.654;2024-01-15T03:12:58;94487.31;;;-1.31;100.00
44297;BME280;51842;47.450;8.654;2024-01-15T03:15:23;94484.28;;;-1.28;100.00
44297;BME280;51842;47.450;8.654;2024-01-15T03:17:49;94489.16;;;-1.31;100.00
44297;BME280;51842;47.450;8.654;2024-01-15T03:20:15;94487.09;;;-1.29;100.00
44297;BME280;51842;47.450;8.654;2024-01-15T03:22:41;94493.94;;;-1.28;100.00
44297;BME280;51842;47.450;8.654;2024-01-15T03:25:07;94485.28;;;-1.29;100.00
44297;BME280;51842;47.450;8.654;2024-01-15T03:27:33;94490.47;;;-1.22;100.00
44297;BME280;51842;47.450;8.654;2024-01-15T03:29:59;94490.66;;;-1.24;100.00
44297;BME280;51842;47.450;8.654;2024-01-15T03:32:25;94485.44;;;-1.24;100.00
44297;BME280;51842;47.450;8.654;2024-01-15T03:34:51;94486.59;;;-1.20;100.00
44297;BME280;51842;47.450;8.654;2024-01-15T03:37:18;94487.19;;;-1.18;100.00
44297;BME280;51842;47.450;8.654;2024-01-15T03:39:43;94484.56;;;-1.18;100.00
44297;BME280;51842;47.450;8.654;2024-01-15T03:42:09;94480.94;;;-1.17;100.00
44297;BME280;51842;47.450;8.654;2024-01-15T03:44:35;94480.13;;;-1.17;100.00
44297;BME280;51842;47.450;8.654;2024-01-15T03:47:01;94476.72;;;-1.18;100.00
44297;BME280;51842;47.450;8.654;2024-01-15T03:49:27;94477.16;;;-1.21;100.00
44297;BME280;51842;47.450;8.654;2024-01-15T03:51:53;94470.00;;;-1.25;100.00
44297;BME280;51842;47.450;8.654;2024-01-15T03:54:18;94478.03;;;-1.27;100.00
44297;BME280;51842;47.450;8.654;2024-01-15T03:56:44;94481.66;;;-1.28;100.00
44297;BME280;51842;47.450;8.654;2024-01-15T03:59:10;94482.47;;;-1.27;100.00
44297;BME280;51842;47.450;8.654;2024-01-15T04:01:36;94483.84;;;-1.25;100.00
44297;BME280;51842;47.450;8.654;2024-01-15T04:04:02;94481.44;;;-1.26;100.00
44297;BME280;51842;47.450;8.654;2024-01-15T04:06:28;94482.38;;;-1.21;100.00
44297;BME280;51842;47.450;8.654;2024-01-15T04:08:53;94481.59;;;-1.21;100.00
44297;BME280;51842;47.450;8.654;2024-01-15T04:11:19;94471.34;;;-1.23;100.00
44297;BME280;51842;47.450;8.654;2024-01-15T04:13:45;94469.75;;;-1.24;100.00
44297;BME280;51842;47.450;8.654;2024-01-15T04:16:11;94472.97;;;-1.22;100.00
44297;BME280;51842;47.450;8.654;2024-01-15T04:18:37;94468.97;;;-1.24;100.00
44297;BME280;51842;47.450;8.654;2024-01-15T04:21:05;94470.91;;;-1.20;100.00
44297;BME280;51842;47.450;8.654;2024-01-15T04:23:33;94479.78;;;-1.21;100.00
44297;BME280;51842;47.450;8.654;2024-01-15T04:25:59;94478.97;;;-1.21;100.00
44297;BME280;51842;47.450;8.654;2024-01-15T04:28:25;94479.56;;;-1.19;100.00
44297;BME280;51842;47.450;8.654;2024-01-15T04:30:50;94478.31;;;-1.17;100.00
44297;BME280;51842;47.450;8.654;2024-01-15T04:33:16;94467.72;;;-1.22;100.00
44297;BME280;51842;47.450;8.654;2024-01-15T04:35:42;94482.63;;;-1.22;100.00
44297;BME280;51842;47.450;8.654;2024-01-15T04:38:08;94472.38;;;-1.24;100.00
44297;BME280;51842;47.450;8.654;2024-01-15T04:40:34;94478.03;;;-1.27;100.00
44297;BME280;51842;47.450;8.654;2024-01-15T04:42:59;94476.00;;;-1.25;100.00
44297;BME280;51842;47.450;8.654;2024-01-15T04:45:25;94469.41;;;-1.27;100.00
44297;BME280;51842;47.450;8.654;2024-01-15T04:47:55;94461.75;;;-1.29;100.00
44297;BME280;51842;47.450;8.654;2024-01-15T04:50:24;94459.81;;;-1.33;100.00
44297;BME280;51842;47.450;8.654;2024-01-15T04:52:50;94455.97;;;-1.31;100.00
44297;BME280;51842;47.450;8.654;2024-01-15T04:55:16;94452.75;;;-1.33;100.00
44297;BME280;51842;47.450;8.654;2024-01-15T04:57:42;94458.66;;;-1.37;100.00
44297;BME280;51842;47.450;8.654;2024-01-15T05:00:09;94461.47;;;-1.39;100.00
44297;BME280;51842;47.450;8.654;2024-01-15T05:02:35;94465.25;;;-1.35;100.00
44297;BME280;51842;47.450;8.654;2024-01-15T05:05:00;94456.84;;;-1.37;100.00
44297;BME280;51842;47.450;8.654;2024-01-15T05:07:26;94459.38;;;-1.30;100.00
44297;BME280;51842;47.450;8.654;2024-01-15T05:09:52;94452.13;;;-1.28;100.00
44297;BME280;51842;47.450;8.654;2024-01-15T05:12:18;94442.91;;;-1.31;100.00
44297;BME280;51842;47.450;8.654;2024-01-15T05:14:43;94449.72;;;-1.30;100.00
44297;BME280;51842;47.450;8.654;2024-01-15T05:17:09;94454.34;;;-1.32;100.00
44297;BME280;51842;47.450;8.654;2024-01-15T05:19:35;94466.63;;;-1.32;100.00
44297;BME280;51842;47.450;8.654;2024-01-15T05:22:01;94467.41;;;-1.32;100.00
44297;BME280;51842;47.450;8.654;2024-01-15T05:24:27;94462.78;;;-1.30;100.00
44297;BME280;51842;47.450;8.654;2024-01-15T05:26:53;94459.59;;;-1.32;100.00
44297;BME280;51842;47.450;8.654;2024-01-15T05:29:18;94461.19;;;-1.31;100.00
44297;BME280;51842;47.450;8.654;2024-01-15T05:31:45;94461.19;;;-1.31;100.00
44297;BME280;51842;47.450;8.654;2024-01-15T05:34:10;94463.56;;;-1.29;100.00
44297;BME280;51842;47.450;8.654;2024-01-15T05:36:36;94445.28;;;-1.29;100.00
44297;BME280;51842;47.450;8.654;2024-01-15T05:39:02;94454.16;;;-1.30;100.00
44297;BME280;51842;47.450;8.654;2024-01-15T05:41:28;94452.13;;;-1.28;100.00
44297;BME280;51842;47.450;8.654;2024-01-15T05:43:54;94449.94;;;-1.31;100.00
44297;BME280;51842;47.450;8.654;2024-01-15T05:46:20;94445.53;;;-1.31;100.00
44297;BME280;51842;47.450;8.654;2024-01-15T05:48:46;94453.91;;;-1.29;100.00
44297;BME280;51842;47.450;8.654;2024-01-15T05:51:12;94458.00;;;-1.33;100.00
44297;BME280;51842;47.450;8.654;2024-01-15T05:53:38;94464.69;;;-1.37;100.00
44297;BME280;51842;47.450;8.654;2024-01-15T05:56:06;94458.88;;;-1.39;100.00
44297;BME280;51842;47.450;8.654;2024-01-15T05:58:32;94455.53;;;-1.46;100.00
44297;BME280;51842;47.450;8.654;2024-01-15T06:00:57;94449.50;;;-1.47;100.00
44297;BME280;51842;47.450;8.654;2024-01-15T06:03:23;94449.63;;;-1.42;100.00
44297;BME280;51842;47.450;8.654;2024-01-15T06:05:49;94449.06;;;-1.44;100.00
44297;BME280;51842;47.450;8.654;2024-01-15T06:08:15;94445.00;;;-1.40;100.00
44297;BME280;51842;47.450;8.654;2024-01-15T06:10:41;94434.31;;;-1.38;100.00
44297;BME280;51842;47.450;8.654;2024-01-15T06:13:07;94428.66;;;-1.35;100.00
44297;BME280;51842;47.450;8.654;2024-01-15T06:15:32;94440.38;;;-1.37;100.00
44297;BME280;51842;47.450;8.654;2024-01-15T06:17:58;94443.34;;;-1.34;100.00
44297;BME280;51842;47.450;8.654;2024-01-15T06:20:24;94451.53;;;-1.30;100.00
44297;BME280;51842;47.450;8.654;2024-01-15T06:22:50;94452.94;;;-1.28;100.00
44297;BME280;51842;47.450;8.654;2024-01-15T06:25:16;94450.50;;;-1.29;100.00
44297;BME280;51842;47.450;8.654;2024-01-15T06:27:41;94443.63;;;-1.24;100.00
44297;BME280;51842;47.450;8.654;2024-01-15T06:30:08;94442.41;;;-1.21;100.00
44297;BME280;51842;47.450;8.654;2024-01-15T06:32:34;94440.38;;;-1.19;100.00
44297;BME280;51842;47.450;8.654;2024-01-15T06:35:00;94441.59;;;-1.22;100.00
44297;BME280;51842;47.450;8.654;2024-01-15T06:37:26;94443.19;;;-1.21;100.00
44297;BME280;51842;47.450;8.654;2024-01-15T06:39:51;94445.59;;;-1.19;100.00
44297;BME280;51842;47.450;8.654;2024-01-15T06:42:17;94441.97;;;-1.18;100.00
44297;BME280;51842;47.450;8.654;2024-01-15T06:44:43;94440.50;;;-1.14;100.00
44297;BME280;51842;47.450;8.654;2024-01-15T06:47:09;94436.66;;;-1.11;100.00
44297;BME280;51842;47.450;8.654;2024-01-15T06:49:35;94440.28;;;-1.12;100.00
44297;BME280;51842;47.450;8.654;2024-01-15T06:52:01;94446.31;;;-1.12;100.00
44297;BME280;51842;47.450;8.654;2024-01-15T06:54:27;94448.56;;;-1.15;100.00
44297;BME280;51842;47.450;8.654;2024-01-15T06:56:52;94441.16;;;-1.19;100.00
44297;BME280;51842;47.450;8.654;2024-01-15T06:59:18;94438.66;;;-1.13;100.00
44297;BME280;51842;47.450;8.654;2024-01-15T07:01:44;94430.63;;;-1.12;100.00
44297;BME280;51842;47.450;8.654;2024-01-15T07:04:10;94439.47;;;-1.13;100.00
44297;BME280;51842;47.450;8.654;2024-01-15T07:06:36;94439.84;;;-1.09;100.00
44297;BME280;51842;47.450;8.654;2024-01-15T07:09:02;94430.03;;;-1.14;100.00
44297;BME280;51842;47.450;8.654;2024-01-15T07:11:27;94435.25;;;-1.14;100.00
44297;BME280;51842;47.450;8.654;2024-01-15T07:13:53;94441.88;;;-1.11;100.00
44297;BME280;51842;47.450;8.654;2024-01-15T07:16:19;94439.91;;;-1.16;100.00
44297;BME280;51842;47.450;8.654;2024-01-15T07:18:45;94446.50;;;-1.13;100.00
44297;BME280;51842;47.450;8.654;2024-01-15T07:21:11;94453.44;;;-1.19;100.00
44297;BME280;51842;47.450;8.654;2024-01-15T07:23:36;94453.63;;;-1.21;100.00
44297;BME280;51842;47.450;8.654;2024-01-15T07:26:03;94449.56;;;-1.17;100.00
44297;BME280;51842;47.450;8.654;2024-01-15T07:28:31;94446.94;;;-1.17;100.00
44297;BME280;51842;47.450;8.654;2024-01-15T07:30:57;94438.66;;;-1.13;100.00
44297;BME280;51842;47.450;8.654;2024-01-15T07:33:23;94434.63;;;-1.09;100.00
44297;BME280;51842;47.450;8.654;2024-01-15T07:35:49;94445.88;;;-1.09;100.00
44297;BME280;51842;47.450;8.654;2024-01-15T07:38:15;94455.88;;;-1.06;100.00
44297;BME280;51842;47.450;8.654;2024-01-15T07:40:40;94451.44;;;-1.05;100.00
44297;BME280;51842;47.450;8.654;2024-01-15T07:43:06;94455.09;;;-1.06;100.00
44297;BME280;51842;47.450;8.654;2024-01-15T07:45:32;94449.19;;;-1.02;100.00
44297;BME280;51842;47.450;8.654;2024-01-15T07:47:58;94456.25;;;-1.02;100.00
44297;BME280;51842;47.450;8.654;2024-01-15T07:50:24;94452.59;;;-1.01;100.00
44297;BME280;51842;47.450;8.654;2024-01-15T07:52:49;94455.44;;;-1.03;100.00
44297;BME280;51842;47.450;8.654;2024-01-15T07:55:15;94460.44;;;-1.01;100.00
44297;BME280;51842;47.450;8.654;2024-01-15T07:57:41;94452.97;;;-0.98;100.00
44297;BME280;51842;47.450;8.654;2024-01-15T08:00:07;94451.38;;;-0.99;100.00
44297;BME280;51842;47.450;8.654;2024-01-15T08:02:34;94453.09;;;-0.93;100.00
44297;BME280;51842;47.450;8.654;2024-01-15T08:05:00;94455.47;;;-0.91;100.00
44297;BME280;51842;47.450;8.654;2024-01-15T08:07:26;94458.09;;;-0.91;100.00
44297;BME280;51842;47.450;8.654;2024-01-15T08:09:53;94462.88;;;-0.88;100.00
44297;BME280;51842;47.450;8.654;2024-01-15T08:12:19;94458.25;;;-0.86;100.00
44297;BME280;51842;47.450;8.654;2024-01-15T08:14:45;94461.31;;;-0.89;100.00
44297;BME280;51842;47.450;8.654;2024-01-15T08:17:11;94462.34;;;-0.90;99.83
44297;BME280;51842;47.450;8.654;2024-01-15T08:19:37;94457.22;;;-0.85;99.09
44297;BME280;51842;47.450;8.654;2024-01-15T08:22:03;94458.16;;;-0.79;99.57
44297;BME280;51842;47.450;8.654;2024-01-15T08:24:29;94453.59;;;-0.84;98.36
44297;BME280;51842;47.450;8.654;2024-01-15T08:26:55;94457.94;;;-0.78;98.60
44297;BME280;51842;47.450;8.654;2024-01-15T08:29:21;94452.94;;;-0.79;98.92
44297;BME280;51842;47.450;8.654;2024-01-15T08:31:48;94458.94;;;-0.79;98.62
44297;BME280;51842;47.450;8.654;2024-01-15T08:34:14;94459.09;;;-0.74;97.23
44297;BME280;51842;47.450;8.654;2024-01-15T08:36:40;94459.25;;;-0.68;97.70
44297;BME280;51842;47.450;8.654;2024-01-15T08:39:07;94461.50;;;-0.72;97.18
44297;BME280;51842;47.450;8.654;2024-01-15T08:41:34;94465.91;;;-0.73;96.50
44297;BME280;51842;47.450;8.654;2024-01-15T08:44:01;94464.25;;;-0.67;97.29
44297;BME280;51842;47.450;8.654;2024-01-15T08:46:28;94469.47;;;-0.67;97.56
44297;BME280;51842;47.450;8.654;2024-01-15T08:48:54;94471.66;;;-0.64;97.34
44297;BME280;51842;47.450;8.654;2024-01-15T08:51:20;94472.44;;;-0.63;97.29
44297;BME280;51842;47.450;8.654;2024-01-15T08:53:46;94476.56;;;-0.56;98.00
44297;BME280;51842;47.450;8.654;2024-01-15T08:56:12;94474.50;;;-0.65;97.25
44297;BME280;51842;47.450;8.654;2024-01-15T08:58:38;94471.78;;;-0.59;97.29
44297;BME280;51842;47.450;8.654;2024-01-15T09:01:03;94477.56;;;-0.57;97.20
44297;BME280;51842;47.450;8.654;2024-01-15T09:03:30;94471.09;;;-0.54;97.24
44297;BME280;51842;47.450;8.654;2024-01-15T09:05:56;94467.56;;;-0.60;97.01
44297;BME280;51842;47.450;8.654;2024-01-15T09:08:22;94478.69;;;-0.64;97.40
44297;BME280;51842;47.450;8.654;2024-01-15T09:10:48;94463.34;;;-0.61;97.00
44297;BME280;51842;47.450;8.654;2024-01-15T09:13:13;94477.38;;;-0.55;97.23
44297;BME280;51842;47.450;8.654;2024-01-15T09:15:39;94471.44;;;-0.51;97.50
44297;BME280;51842;47.450;8.654;2024-01-15T09:18:05;94468.63;;;-0.49;96.77
44297;BME280;51842;47.450;8.654;2024-01-15T09:20:31;94472.34;;;-0.57;95.11
44297;BME280;51842;47.450;8.654;2024-01-15T09:22:57;94472.28;;;-0.50;96.40
44297;BME280;51842;47.450;8.654;2024-01-15T09:25:23;94472.47;;;-0.52;95.43
44297;BME280;51842;47.450;8.654;2024-01-15T09:27:49;94466.22;;;-0.51;94.39
44297;BME280;51842;47.450;8.654;2024-01-15T09:30:15;94470.22;;;-0.48;94.68
44297;BME280;51842;47.450;8.654;2024-01-15T09:32:41;94471.34;;;-0.44;94.76
44297;BME280;51842;47.450;8.654;2024-01-15T09:35:08;94465.25;;;-0.38;95.21
44297;BME280;51842;47.450;8.654;2024-01-15T09:37:34;94459.56;;;-0.35;93.44
44297;BME280;51842;47.450;8.654;2024-01-15T09:40:00;94464.69;;;-0.40;92.71
44297;BME280;51842;47.450;8.654;2024-01-15T09:42:26;94467.41;;;-0.35;93.13
44297;BME280;51842;47.450;8.654;2024-01-15T09:44:53;94470.41;;;-0.31;92.46
44297;BME280;51842;47.450;8.654;2024-01-15T09:47:21;94469.13;;;-0.29;92.84
44297;BME280;51842;47.450;8.654;2024-01-15T09:49:48;94461.97;;;-0.33;90.84
44297;BME280;51842;47.450;8.654;2024-01-15T09:52:16;94461.03;;;-0.39;89.94
44297;BME280;51842;47.450;8.654;2024-01-15T09:54:46;94460.94;;;-0.32;89.36
44297;BME280;51842;47.450;8.654;2024-01-15T09:57:12;94461.53;;;-0.30;90.06
44297;BME280;51842;47.450;8.654;2024-01-15T09:59:43;94466.66;;;-0.24;89.90
44297;BME280;51842;47.450;8.654;2024-01-15T10:02:13;94463.13;;;-0.17;90.11
44297;BME280;51842;47.450;8.654;2024-01-15T10:04:44;94460.88;;;-0.14;89.54
44297;BME280;51842;47.450;8.654;2024-01-15T10:07:16;94456.88;;;-0.16;89.13
44297;BME280;51842;47.450;8.654;2024-01-15T10:09:46;94457.59;;;-0.09;89.24
44297;BME280;51842;47.450;8.654;2024-01-15T10:12:12;94454.28;;;-0.05;89.20
44297;BME280;51842;47.450;8.654;2024-01-15T10:14:38;94443.34;;;-0.02;88.40
44297;BME280;51842;47.450;8.654;2024-01-15T10:17:24;94441.19;;;-0.05;87.55
44297;BME280;51842;47.450;8.654;2024-01-15T10:19:53;94443.81;;;-0.05;87.55
44297;BME280;51842;47.450;8.654;2024-01-15T10:22:19;94438.00;;;0.05;86.78
44297;BME280;51842;47.450;8.654;2024-01-15T10:24:45;94435.38;;;0.05;85.83
44297;BME280;51842;47.450;8.654;2024-01-15T10:27:12;94436.19;;;0.06;85.99
44297;BME280;51842;47.450;8.654;2024-01-15T10:29:38;94421.50;;;0.05;85.12
44297;BME280;51842;47.450;8.654;2024-01-15T10:32:08;94413.97;;;-0.04;83.78
44297;BME280;51842;47.450;8.654;2024-01-15T10:34:39;94406.81;;;0.04;83.69
44297;BME280;51842;47.450;8.654;2024-01-15T10:37:09;94401.03;;;0.13;84.83
44297;BME280;51842;47.450;8.654;2024-01-15T10:39:35;94402.50;;;0.21;84.74
44297;BME280;51842;47.450;8.654;2024-01-15T10:42:03;94395.31;;;0.16;82.03
44297;BME280;51842;47.450;8.654;2024-01-15T10:44:29;94398.03;;;0.21;82.84
44297;BME280;51842;47.450;8.654;2024-01-15T10:46:57;94398.63;;;0.23;83.15
44297;BME280;51842;47.450;8.654;2024-01-15T10:49:23;94400.00;;;0.26;81.73
44297;BME280;51842;47.450;8.654;2024-01-15T10:51:53;94392.81;;;0.21;80.66
44297;BME280;51842;47.450;8.654;2024-01-15T10:54:21;94382.91;;;0.23;82.56
44297;BME280;51842;47.450;8.654;2024-01-15T10:56:50;94387.81;;;0.32;81.32
44297;BME280;51842;47.450;8.654;2024-01-15T10:59:20;94372.28;;;0.42;81.90
44297;BME280;51842;47.450;8.654;2024-01-15T11:01:49;94376.81;;;0.46;80.46
44297;BME280;51842;47.450;8.654;2024-01-15T11:04:15;94367.63;;;0.44;80.16
44297;BME280;51842;47.450;8.654;2024-01-15T11:06:47;94375.56;;;0.49;80.26
44297;BME280;51842;47.450;8.654;2024-01-15T11:09:14;94372.59;;;0.57;79.07
44297;BME280;51842;47.450;8.654;2024-01-15T11:11:47;94378.75;;;0.63;79.93
44297;BME280;51842;47.450;8.654;2024-01-15T11:14:39;94382.81;;;0.71;79.65
44297;BME280;51842;47.450;8.654;2024-01-15T11:17:06;94391.25;;;0.73;79.06
44297;BME280;51842;47.450;8.654;2024-01-15T11:19:44;94385.97;;;0.84;79.04
44297;BME280;51842;47.450;8.654;2024-01-15T11:25:14;94376.25;;;0.97;77.93
44297;BME280;51842;47.450;8.654;2024-01-15T11:27:41;94373.72;;;1.02;78.04
44297;BME280;51842;47.450;8.654;2024-01-15T11:30:13;94360.00;;;1.11;78.04
44297;BME280;51842;47.450;8.654;2024-01-15T11:32:40;94361.88;;;0.99;75.82
44297;BME280;51842;47.450;8.654;2024-01-15T11:35:10;94356.94;;;1.03;76.35
44297;BME280;51842;47.450;8.654;2024-01-15T11:42:58;94354.91;;;1.22;76.33
44297;BME280;51842;47.450;8.654;2024-01-15T11:45:24;94354.44;;;1.25;76.25
44297;BME280;51842;47.450;8.654;2024-01-15T11:48:12;94344.84;;;1.30;76.73
44297;BME280;51842;47.450;8.654;2024-01-15T11:50:46;94352.28;;;1.22;75.54
44297;BME280;51842;47.450;8.654;2024-01-15T11:53:40;94348.72;;;1.28;77.44
44297;BME280;51842;47.450;8.654;2024-01-15T11:56:16;94332.09;;;1.22;76.48
44297;BME280;51842;47.450;8.654;2024-01-15T11:58:44;94333.63;;;1.18;76.24
44297;BME280;51842;47.450;8.654;2024-01-15T12:01:11;94329.47;;;1.22;76.93
44297;BME280;51842;47.450;8.654;2024-01-15T12:03:37;94335.63;;;1.28;77.27
44297;BME280;51842;47.450;8.654;2024-01-15T12:06:07;94347.94;;;1.27;77.14
44297;BME280;51842;47.450;8.654;2024-01-15T12:08:33;94330.69;;;1.31;76.60
44297;BME280;51842;47.450;8.654;2024-01-15T12:10:59;94331.31;;;1.22;74.37
44297;BME280;51842;47.450;8.654;2024-01-15T12:13:25;94328.53;;;1.28;76.39
44297;BME280;51842;47.450;8.654;2024-01-15T12:15:50;94315.75;;;1.32;75.42
44297;BME280;51842;47.450;8.654;2024-01-15T12:18:19;94320.06;;;1.38;76.79
44297;BME280;51842;47.450;8.654;2024-01-15T12:20:46;94320.75;;;1.33;75.54
44297;BME280;51842;47.450;8.654;2024-01-15T12:23:13;94321.97;;;1.26;75.00
44297;BME280;51842;47.450;8.654;2024-01-15T12:25:40;94322.50;;;1.28;74.75
44297;BME280;51842;47.450;8.654;2024-01-15T12:28:06;94326.78;;;1.34;75.09
44297;BME280;51842;47.450;8.654;2024-01-15T12:30:35;94325.84;;;1.23;73.82
44297;BME280;51842;47.450;8.654;2024-01-15T12:33:07;94335.72;;;1.33;75.24
44297;BME280;51842;47.450;8.654;2024-01-15T12:35:35;94331.34;;;1.38;75.28
44297;BME280;51842;47.450;8.654;2024-01-15T12:38:02;94336.19;;;1.47;74.59
44297;BME280;51842;47.450;8.654;2024-01-15T12:40:28;94328.31;;;1.47;73.67
44297;BME280;51842;47.450;8.654;2024-01-15T12:42:55;94327.84;;;1.50;73.45
44297;BME280;51842;47.450;8.654;2024-01-15T12:45:22;94322.28;;;1.46;73.60
44297;BME280;51842;47.450;8.654;2024-01-15T12:47:48;94325.53;;;1.53;74.29
44297;BME280;51842;47.450;8.654;2024-01-15T12:50:14;94329.44;;;1.68;74.42
44297;BME280;51842;47.450;8.654;2024-01-15T12:52:41;94330.06;;;1.75;73.61
44297;BME280;51842;47.450;8.654;2024-01-15T12:55:09;94339.69;;;1.69;73.11
44297;BME280;51842;47.450;8.654;2024-01-15T12:57:36;94335.88;;;1.77;72.23
44297;BME280;51842;47.450;8.654;2024-01-15T13:00:05;94341.44;;;1.80;72.49